createdAt,value
2023-09-05T00:03:55.594Z,2.90
2023-09-05T00:08:49.463Z,2.58
2023-09-05T00:13:45.550Z,2.67
2023-09-05T00:18:39.524Z,2.35
2023-09-05T00:23:33.927Z,2.30
2023-09-05T00:28:28.401Z,2.38
2023-09-05T00:33:22.697Z,2.35
2023-09-05T00:38:19.334Z,2.38
2023-09-05T00:43:14.702Z,2.25
2023-09-05T00:48:10.506Z,2.30
2023-09-05T00:53:05.026Z,2.15
2023-09-05T00:58:02.124Z,2.40
2023-09-05T01:02:57.358Z,2.45
2023-09-05T01:08:26.200Z,2.42
2023-09-05T01:13:28.643Z,2.67
2023-09-05T01:18:22.601Z,2.10
2023-09-05T01:23:20.003Z,2.42
2023-09-05T01:28:13.847Z,2.85
2023-09-05T01:33:08.574Z,2.53
2023-09-05T01:38:02.382Z,2.40
2023-09-05T01:42:56.456Z,2.33
2023-09-05T01:47:51.595Z,2.50
2023-09-05T01:52:45.478Z,2.60
2023-09-05T01:57:38.183Z,2.50
2023-09-05T02:02:31.437Z,2.40
2023-09-05T02:07:25.460Z,2.40
2023-09-05T02:12:19.383Z,2.67
2023-09-05T02:17:14.171Z,2.70
2023-09-05T02:22:08.376Z,2.15
2023-09-05T02:27:04.060Z,2.65
2023-09-05T02:31:57.904Z,2.60
2023-09-05T02:36:56.435Z,2.47
2023-09-05T02:41:51.349Z,2.42
2023-09-05T02:46:46.617Z,2.85
2023-09-05T02:51:47.084Z,2.45
2023-09-05T02:56:41.148Z,2.42
2023-09-05T03:01:35.335Z,2.53
2023-09-05T03:06:29.424Z,2.70
2023-09-05T03:11:23.845Z,2.25
2023-09-05T03:16:19.700Z,2.65
2023-09-05T03:21:16.456Z,2.97
2023-09-05T03:26:11.685Z,2.45
2023-09-05T03:31:04.632Z,2.70
2023-09-05T03:35:58.770Z,2.72
2023-09-05T03:40:52.709Z,2.67
2023-09-05T03:45:50.850Z,2.90
2023-09-05T03:50:44.400Z,2.33
2023-09-05T03:55:38.417Z,2.45
2023-09-05T04:00:51.866Z,2.90
2023-09-05T04:05:45.779Z,3.13
2023-09-05T04:10:40.145Z,3.13
2023-09-05T04:15:34.111Z,2.72
2023-09-05T04:20:27.682Z,2.58
2023-09-05T04:25:21.498Z,2.70
2023-09-05T04:30:15.779Z,2.45
2023-09-05T04:35:09.889Z,2.65
2023-09-05T04:40:05.496Z,2.60
2023-09-05T04:44:59.375Z,2.78
2023-09-05T04:49:55.186Z,2.78
2023-09-05T04:54:49.336Z,2.88
2023-09-05T04:59:47.025Z,3.33
2023-09-05T05:04:42.833Z,2.78
2023-09-05T05:09:36.785Z,2.67
2023-09-05T05:14:31.087Z,2.67
2023-09-05T05:19:24.904Z,4.03
2023-09-05T05:24:18.956Z,2.88
2023-09-05T05:29:13.529Z,2.88
2023-09-05T05:34:07.556Z,2.72
2023-09-05T05:39:02.628Z,2.90
2023-09-05T05:43:57.684Z,2.63
2023-09-05T05:48:53.455Z,2.80
2023-09-05T05:53:48.757Z,2.50
2023-09-05T05:58:43.074Z,2.60
2023-09-05T06:03:37.495Z,2.33
2023-09-05T06:08:32.849Z,3.13
2023-09-05T06:13:26.302Z,3.15
2023-09-05T06:18:20.939Z,2.65
2023-09-05T06:23:14.552Z,2.53
2023-09-05T06:28:09.890Z,3.00
2023-09-05T06:33:03.542Z,2.58
2023-09-05T06:37:57.558Z,3.13
2023-09-05T06:42:53.356Z,3.67
2023-09-05T06:47:47.430Z,2.90
2023-09-05T06:52:41.383Z,3.15
2023-09-05T06:57:35.623Z,3.80
2023-09-05T07:02:30.196Z,4.03
2023-09-05T07:07:25.073Z,4.15
2023-09-05T07:12:19.115Z,3.97
2023-09-05T07:17:12.938Z,4.35
2023-09-05T07:22:07.646Z,4.40
2023-09-05T07:27:01.706Z,3.78
2023-09-05T07:31:57.298Z,4.13
2023-09-05T07:36:50.888Z,4.22
2023-09-05T07:41:44.900Z,4.22
2023-09-05T07:46:38.504Z,4.28
2023-09-05T07:51:32.934Z,3.33
2023-09-05T07:56:27.941Z,3.70
2023-09-05T08:01:23.551Z,4.20
2023-09-05T08:06:17.382Z,4.00
2023-09-05T08:11:11.379Z,3.53
2023-09-05T08:16:07.386Z,3.67
2023-09-05T08:21:01.305Z,3.45
2023-09-05T08:25:58.451Z,3.50
2023-09-05T08:30:54.173Z,3.88
2023-09-05T08:35:51.512Z,3.53
2023-09-05T08:40:50.152Z,4.00
2023-09-05T08:45:46.645Z,3.45
2023-09-05T08:50:41.872Z,3.60
2023-09-05T08:55:36.122Z,3.67
2023-09-05T09:00:30.490Z,3.88
2023-09-05T09:05:24.587Z,3.38
2023-09-05T09:10:23.379Z,3.25
2023-09-05T09:15:17.654Z,2.97
2023-09-05T09:20:14.217Z,2.72
2023-09-05T09:25:13.941Z,2.67
2023-09-05T09:30:12.213Z,3.30
2023-09-05T09:35:12.156Z,3.00
2023-09-05T09:40:07.846Z,3.25
2023-09-05T09:45:02.300Z,3.00
2023-09-05T09:49:55.967Z,3.35
2023-09-05T09:54:53.160Z,3.38
2023-09-05T09:59:59.283Z,2.60
2023-09-05T10:04:55.281Z,3.20
2023-09-05T10:09:49.989Z,2.92
2023-09-05T10:14:44.157Z,3.65
2023-09-05T10:19:41.024Z,3.00
2023-09-05T10:24:36.298Z,3.00
2023-09-05T10:29:39.257Z,3.30
2023-09-05T10:34:52.492Z,2.97
2023-09-05T10:39:47.452Z,2.90
2023-09-05T10:44:48.683Z,2.80
2023-09-05T10:49:48.449Z,3.00
2023-09-05T10:54:42.350Z,3.03
2023-09-05T10:59:44.199Z,3.10
2023-09-05T11:04:39.958Z,2.92
2023-09-05T11:09:51.327Z,2.92
2023-09-05T11:14:45.387Z,3.13
2023-09-05T11:19:43.003Z,2.92
2023-09-05T11:24:37.733Z,3.25
2023-09-05T11:29:31.633Z,3.15
2023-09-05T11:34:26.483Z,3.00
2023-09-05T11:39:21.858Z,3.05
2023-09-05T11:44:15.979Z,3.10
2023-09-05T11:49:11.414Z,3.25
2023-09-05T11:54:05.756Z,2.75
2023-09-05T11:58:59.821Z,2.60
2023-09-05T12:04:01.867Z,3.25
2023-09-05T12:08:56.424Z,3.65
2023-09-05T12:13:50.585Z,2.97
2023-09-05T12:18:47.088Z,3.88
2023-09-05T12:23:43.435Z,3.65
2023-09-05T12:28:36.397Z,3.00
2023-09-05T12:33:30.988Z,3.42
2023-09-05T12:38:25.998Z,3.30
2023-09-05T12:43:21.701Z,3.05
2023-09-05T12:48:15.538Z,3.30
2023-09-05T12:53:11.889Z,3.45
2023-09-05T12:58:08.167Z,3.20
2023-09-05T13:03:04.643Z,3.10
2023-09-05T13:08:02.409Z,3.63
2023-09-05T13:12:59.574Z,3.42
2023-09-05T13:17:55.285Z,3.33
2023-09-05T13:22:51.577Z,3.00
2023-09-05T13:27:45.717Z,3.40
2023-09-05T13:32:40.575Z,3.35
2023-09-05T13:37:34.991Z,3.25
2023-09-05T13:42:28.207Z,3.20
2023-09-05T13:47:22.451Z,2.63
2023-09-05T13:52:16.953Z,2.33
2023-09-05T13:57:12.582Z,3.20
2023-09-05T14:02:07.664Z,3.13
2023-09-05T14:07:02.517Z,3.08
2023-09-05T14:11:58.645Z,2.88
2023-09-05T14:16:55.528Z,3.53
2023-09-05T14:21:49.817Z,3.58
2023-09-05T14:26:43.802Z,3.35
2023-09-05T14:31:38.573Z,3.33
2023-09-05T14:36:32.033Z,2.97
2023-09-05T14:41:32.785Z,3.42
2023-09-05T14:46:26.383Z,2.80
2023-09-05T14:51:19.326Z,2.92
2023-09-05T14:56:13.375Z,2.88
2023-09-05T15:01:07.973Z,3.13
2023-09-05T15:06:00.853Z,2.92
2023-09-05T15:10:54.061Z,3.60
2023-09-05T15:15:50.132Z,3.45
2023-09-05T15:20:45.559Z,3.65
2023-09-05T15:25:39.845Z,3.50
2023-09-05T15:30:33.460Z,2.75
2023-09-05T15:35:29.290Z,3.20
2023-09-05T15:40:23.809Z,2.70
2023-09-05T15:45:18.018Z,2.80
2023-09-05T15:50:19.432Z,2.97
2023-09-05T15:55:13.817Z,3.25
2023-09-05T16:00:10.923Z,2.72
2023-09-05T16:05:09.462Z,3.08
2023-09-05T16:10:06.637Z,2.95
2023-09-05T16:15:02.377Z,3.45
2023-09-05T16:19:56.465Z,3.20
2023-09-05T16:24:49.867Z,3.40
2023-09-05T16:29:45.835Z,3.15
2023-09-05T16:34:43.748Z,3.30
2023-09-05T16:39:43.985Z,2.95
2023-09-05T16:44:40.043Z,2.80
2023-09-05T16:49:34.916Z,3.67
2023-09-05T16:54:28.387Z,3.08
2023-09-05T16:59:22.380Z,3.13
2023-09-05T17:04:17.042Z,3.15
2023-09-05T17:09:11.826Z,3.05
2023-09-05T17:14:06.483Z,2.83
2023-09-05T17:19:00.568Z,3.50
2023-09-05T17:23:56.481Z,3.20
2023-09-05T17:28:50.612Z,3.15
2023-09-05T17:33:44.350Z,3.60
2023-09-05T17:38:38.472Z,3.42
2023-09-05T17:43:31.779Z,4.20
2023-09-05T17:48:26.080Z,3.70
2023-09-05T17:53:19.899Z,3.20
2023-09-05T17:58:14.362Z,3.15
2023-09-05T18:03:10.485Z,3.33
2023-09-05T18:08:04.234Z,2.90
2023-09-05T18:12:58.115Z,2.95
2023-09-05T18:17:51.478Z,2.88
2023-09-05T18:22:46.081Z,2.95
2023-09-05T18:27:40.316Z,3.15
2023-09-05T18:32:34.847Z,3.75
2023-09-05T18:37:28.977Z,2.88
2023-09-05T18:42:22.689Z,3.47
2023-09-05T18:47:16.266Z,3.63
2023-09-05T18:52:11.540Z,3.42
2023-09-05T18:57:09.169Z,2.95
2023-09-05T19:02:04.940Z,3.15
2023-09-05T19:07:04.130Z,3.38
2023-09-05T19:11:58.039Z,3.38
2023-09-05T19:16:56.816Z,3.45
2023-09-05T19:21:50.205Z,3.47
2023-09-05T19:26:43.709Z,3.50
2023-09-05T19:31:39.123Z,3.50
2023-09-05T19:36:33.139Z,3.00
2023-09-05T19:41:28.278Z,3.53
2023-09-05T19:46:23.669Z,3.47
2023-09-05T19:51:18.583Z,3.45
2023-09-05T19:56:14.848Z,3.35
2023-09-05T20:01:09.433Z,3.30
2023-09-05T20:06:04.487Z,3.33
2023-09-05T20:10:58.315Z,3.20
2023-09-05T20:20:52.687Z,3.78
2023-09-05T20:25:46.432Z,3.22
2023-09-05T20:30:40.737Z,3.60
2023-09-05T20:35:35.535Z,3.70
2023-09-05T20:40:29.812Z,3.80
2023-09-05T20:45:24.559Z,3.53
2023-09-05T20:50:18.766Z,3.58
2023-09-05T20:55:16.489Z,3.85
2023-09-05T21:00:12.568Z,4.00
2023-09-05T21:05:09.339Z,3.92
2023-09-05T21:10:05.708Z,4.18
2023-09-05T21:15:00.906Z,3.67
2023-09-05T21:19:58.942Z,3.42
2023-09-05T21:24:52.148Z,3.70
2023-09-05T21:29:46.390Z,3.47
2023-09-05T21:34:42.022Z,3.20
2023-09-05T21:39:37.482Z,3.80
2023-09-05T21:44:31.047Z,3.40
2023-09-05T21:49:26.011Z,3.22
2023-09-05T21:54:21.312Z,3.13
2023-09-05T21:59:14.559Z,3.20
2023-09-05T22:04:08.816Z,3.70
2023-09-05T22:09:02.635Z,4.07
2023-09-05T22:13:56.797Z,2.92
2023-09-05T22:18:55.906Z,3.33
2023-09-05T22:23:49.798Z,3.50
2023-09-05T22:28:43.423Z,3.50
2023-09-05T22:33:38.329Z,3.13
2023-09-05T22:38:32.632Z,3.55
2023-09-05T22:43:28.057Z,3.28
2023-09-05T22:48:21.461Z,3.30
2023-09-05T22:53:15.093Z,3.75
2023-09-05T22:58:09.327Z,3.80
2023-09-05T23:03:02.702Z,3.17
2023-09-05T23:07:56.951Z,3.63
2023-09-05T23:12:51.016Z,2.90
2023-09-05T23:17:45.645Z,2.90
2023-09-05T23:22:40.055Z,3.15
2023-09-05T23:27:36.209Z,2.90
2023-09-05T23:32:32.624Z,3.00
2023-09-05T23:37:25.548Z,3.08
2023-09-05T23:42:20.033Z,3.33
2023-09-05T23:47:14.489Z,3.40
2023-09-05T23:52:08.551Z,3.20
2023-09-05T23:57:05.355Z,3.58
